Weather reports worldwide

Advertisment
Itsaso, Spain (8037): temperature & dewpoint: 03.08.2020 22:00:00 - 09.08.2020 22:00:00 (CEST)Itsaso, Spain (8037): wind speed & gusts: 03.08.2020 22:00:00 - 09.08.2020 22:00:00 (CEST)Itsaso, Spain (8037): wind direction: 03.08.2020 22:00:00 - 09.08.2020 22:00:00 (CEST)Itsaso, Spain (8037): reduced air pressure: 03.08.2020 22:00:00 - 09.08.2020 22:00:00 (CEST)Itsaso, Spain (8037): precipitation: 03.08.2020 22:00:00 - 09.08.2020 22:00:00 (CEST)
Date & Time tt [°C] td [°C] ff [km/h] ff [kn] fx [km/h] fx [kn] dd ppp [hPa] rr [mm]
09.08.2020 22:00:00 - - - - - - - - -
09.08.2020 21:00:00 - - - - - - - - -
09.08.2020 20:00:00 - - - - - - - - -
09.08.2020 19:00:00 - - - - - - - - -
09.08.2020 18:00:00 - - - - - - - - -
09.08.2020 17:00:00 - - - - - - - - -
09.08.2020 16:00:00 - - - - - - - - -
09.08.2020 15:00:00 - - - - - - - - -
09.08.2020 14:00:00 - - - - - - - - -
09.08.2020 13:00:00 - - - - - - - - -
09.08.2020 12:00:00 - - - - - - - - -
09.08.2020 11:00:00 - - - - - - - - -
09.08.2020 10:00:00 - - - - - - - - -
09.08.2020 09:00:00 - - - - - - - - -
09.08.2020 08:00:00 - - - - - - - - -
09.08.2020 07:00:00 - - - - - - - - -
09.08.2020 06:00:00 - - - - - - - - -
09.08.2020 05:00:00 - - - - - - - - -
09.08.2020 04:00:00 - - - - - - - - -
09.08.2020 03:00:00 - - - - - - - - -
09.08.2020 02:00:00 - - - - - - - - -
09.08.2020 01:00:00 - - - - - - - - -
09.08.2020 00:00:00 - - - - - - - - -
08.08.2020 23:00:00 - - - - - - - - -
08.08.2020 22:00:00 - - - - - - - - -
08.08.2020 21:00:00 - - - - - - - - -
08.08.2020 20:00:00 - - - - - - - - -
08.08.2020 19:00:00 - - - - - - - - -
08.08.2020 18:00:00 - - - - - - - - -
08.08.2020 17:00:00 - - - - - - - - -
08.08.2020 16:00:00 - - - - - - - - -
08.08.2020 15:00:00 - - - - - - - - -
08.08.2020 14:00:00 - - - - - - - - -
08.08.2020 13:00:00 - - - - - - - - -
08.08.2020 12:00:00 - - - - - - - - -
08.08.2020 11:00:00 - - - - - - - - -
08.08.2020 10:00:00 - - - - - - - - -
08.08.2020 09:00:00 - - - - - - - - -
08.08.2020 08:00:00 - - - - - - - - -
08.08.2020 07:00:00 - - - - - - - - -
08.08.2020 06:00:00 - - - - - - - - -
08.08.2020 05:00:00 - - - - - - - - -
08.08.2020 04:00:00 - - - - - - - - -
08.08.2020 03:00:00 - - - - - - - - -
08.08.2020 02:00:00 - - - - - - - - -
08.08.2020 01:00:00 - - - - - - - - -
08.08.2020 00:00:00 - - - - - - - - -
07.08.2020 23:00:00 - - - - - - - - -
07.08.2020 22:00:00 - - - - - - - - -
07.08.2020 21:00:00 - - - - - - - - -
07.08.2020 20:00:00 - - - - - - - - -
07.08.2020 19:00:00 - - - - - - - - -
07.08.2020 18:00:00 - - - - - - - - -
07.08.2020 17:00:00 - - - - - - - - -
07.08.2020 16:00:00 - - - - - - - - -
07.08.2020 15:00:00 - - - - - - - - -
07.08.2020 14:00:00 35,4 16,2 4 2 23 12 ESE 1011,8 -
07.08.2020 13:00:00 34,1 16,0 6 3 22 12 ESE 1012,2 0,0
07.08.2020 12:00:00 32,1 15,2 7 4 24 13 SE 1012,8 0,0
07.08.2020 11:00:00 30,8 15,3 10 6 23 12 ESE 1013,0 0,0
07.08.2020 10:00:00 29,6 15,3 9 5 24 13 ESE 1013,1 0,0
07.08.2020 09:00:00 27,9 14,9 5 3 20 11 ESE 1013,1 0,0
07.08.2020 08:00:00 24,8 13,9 0 0 10 5 W 1013,2 -
07.08.2020 07:00:00 25,4 13,3 3 1 13 7 ESE 1012,6 0,0
07.08.2020 06:00:00 24,9 13,2 2 1 9 5 SE 1012,4 0,0
07.08.2020 05:00:00 25,7 13,9 1 0 9 5 SSE 1012,3 0,0
07.08.2020 04:00:00 25,4 14,2 1 0 6 3 E 1012,2 0,0
07.08.2020 03:00:00 25,0 14,4 0 0 2 1 S 1012,4 0,0
07.08.2020 02:00:00 25,0 15,9 0 0 1 1 NNE 1012,3 -
07.08.2020 01:00:00 23,5 17,9 0 0 0 0 SW 1012,4 0,0
07.08.2020 00:00:00 24,4 17,9 0 0 1 1 S 1012,4 0,0
06.08.2020 23:00:00 25,1 17,5 0 0 1 0 W 1011,9 0,0
06.08.2020 22:00:00 26,9 17,1 0 0 2 1 WNW 1011,2 0,0
06.08.2020 21:00:00 30,3 16,0 1 1 5 3 NW 1010,1 0,0
06.08.2020 20:00:00 33,4 13,9 4 2 13 7 E 1009,2 -
06.08.2020 19:00:00 34,8 13,6 6 3 21 11 E 1008,9 0,0
06.08.2020 18:00:00 35,2 13,9 3 2 19 10 E 1008,9 0,0
06.08.2020 17:00:00 35,1 13,9 3 2 18 10 E 1009,2 0,0
06.08.2020 16:00:00 34,5 13,4 5 3 24 13 SE 1009,9 0,0
06.08.2020 15:00:00 33,5 13,1 9 5 21 12 ESE 1010,4 0,0
06.08.2020 14:00:00 32,5 13,2 7 4 22 12 ESE 1011,0 -
06.08.2020 13:00:00 30,2 15,1 10 6 24 13 E 1011,2 0,0
06.08.2020 12:00:00 27,4 14,7 9 5 21 12 E 1012,3 0,0
06.08.2020 11:00:00 25,4 14,8 5 3 13 7 ESE 1012,9 0,0
06.08.2020 10:00:00 22,4 14,5 3 2 10 6 ENE 1013,3 0,0
06.08.2020 09:00:00 18,4 14,7 0 0 2 1 ENE 1014,2 0,0
06.08.2020 08:00:00 13,9 13,8 0 0 2 1 W 1014,9 -
06.08.2020 07:00:00 13,0 12,8 0 0 1 0 WNW 1014,8 0,0
06.08.2020 06:00:00 13,0 12,8 0 0 1 0 W 1014,8 0,0
06.08.2020 05:00:00 13,7 13,4 0 0 5 3 SW 1014,9 0,0
06.08.2020 04:00:00 13,4 13,1 0 0 9 5 SW 1015,1 0,0
06.08.2020 03:00:00 13,9 13,6 1 0 6 3 SW 1015,2 0,0
06.08.2020 02:00:00 14,8 14,1 0 0 3 2 SW 1015,0 -
06.08.2020 01:00:00 15,8 14,7 0 0 6 3 SW 1014,7 0,0
06.08.2020 00:00:00 16,4 14,6 1 1 6 3 W 1014,6 0,0
05.08.2020 23:00:00 17,9 15,3 1 1 6 4 W 1014,1 0,0
05.08.2020 22:00:00 20,2 14,5 4 2 10 5 WNW 1013,1 0,0
05.08.2020 21:00:00 24,0 14,4 3 1 12 6 NNW 1011,8 0,0
05.08.2020 20:00:00 26,0 13,5 7 4 17 9 NNW 1011,0 -
05.08.2020 19:00:00 27,8 13,4 9 5 22 12 NNW 1010,6 0,0
05.08.2020 18:00:00 28,9 12,7 9 5 22 12 NNW 1010,1 0,0
05.08.2020 17:00:00 29,9 9,9 7 4 21 12 N 1009,9 0,0
05.08.2020 16:00:00 29,5 9,0 4 2 14 8 N 1010,4 0,0
05.08.2020 15:00:00 28,5 9,2 3 2 14 8 NNW 1010,6 0,0
05.08.2020 14:00:00 26,2 9,0 3 2 14 7 E 1011,5 -
05.08.2020 13:00:00 24,0 9,6 4 2 14 8 ESE 1012,3 0,0
05.08.2020 12:00:00 21,4 9,9 6 3 14 8 ENE 1013,1 0,0
05.08.2020 11:00:00 18,5 12,2 3 2 9 5 ENE 1013,6 0,0
05.08.2020 10:00:00 15,8 13,7 3 2 7 4 ENE 1014,1 0,0
05.08.2020 09:00:00 12,8 12,6 0 0 1 1 E 1014,9 0,0
05.08.2020 08:00:00 10,9 10,8 0 0 0 0 W 1015,1 -
05.08.2020 07:00:00 10,2 10,0 0 0 5 3 S 1015,2 0,0
05.08.2020 06:00:00 10,8 10,6 1 0 5 3 WSW 1015,4 0,0
05.08.2020 05:00:00 11,2 11,0 0 0 1 0 W 1015,5 0,0
05.08.2020 04:00:00 11,7 11,6 0 0 1 0 W 1016,0 0,0
05.08.2020 03:00:00 12,3 12,1 0 0 2 1 SW 1016,6 0,0
05.08.2020 02:00:00 13,0 12,8 0 0 0 0 SW 1016,9 -
05.08.2020 01:00:00 13,5 13,1 0 0 1 1 SSW 1017,0 0,0
05.08.2020 00:00:00 14,1 13,2 0 0 1 1 SSW 1016,9 0,0
04.08.2020 23:00:00 15,0 13,4 0 0 4 2 WSW 1016,9 0,0
04.08.2020 22:00:00 16,0 13,0 1 0 12 6 WNW 1016,3 0,0
04.08.2020 21:00:00 18,5 12,4 6 3 17 9 NNW 1016,0 0,0
04.08.2020 20:00:00 19,9 11,7 6 3 19 10 N 1015,8 -
04.08.2020 19:00:00 20,8 11,7 7 4 18 10 N 1015,6 0,0
04.08.2020 18:00:00 21,2 11,6 7 4 22 12 N 1016,0 0,0
04.08.2020 17:00:00 22,1 11,4 5 3 19 11 N 1016,0 0,0
04.08.2020 16:00:00 21,7 12,2 5 3 16 9 N 1016,4 0,0
04.08.2020 15:00:00 19,1 12,8 6 4 16 9 NNW 1017,7 0,0
04.08.2020 14:00:00 18,7 13,8 2 1 15 8 NNE 1018,0 -
04.08.2020 13:00:00 18,1 13,6 1 1 14 8 WNW 1018,2 0,0
04.08.2020 12:00:00 - - 3 2 16 8 NW - 0,0
04.08.2020 11:00:00 16,0 14,5 2 1 10 5 NW 1018,4 0,0
04.08.2020 10:00:00 15,7 14,6 3 2 15 8 W 1018,4 0,0
04.08.2020 09:00:00 14,7 14,5 5 3 13 7 WNW 1018,3 0,0
04.08.2020 08:00:00 13,8 13,7 4 2 10 5 WNW 1018,3 -
04.08.2020 07:00:00 13,2 13,1 3 2 9 5 W 1018,3 0,0
04.08.2020 06:00:00 13,4 13,3 3 1 9 5 W 1018,4 0,0
04.08.2020 05:00:00 13,3 13,2 1 1 8 5 W 1018,6 0,0
04.08.2020 04:00:00 13,0 12,8 1 1 10 5 W 1018,8 0,0
04.08.2020 03:00:00 13,6 13,3 4 2 11 6 W 1018,7 0,0
04.08.2020 02:00:00 12,7 12,2 1 1 7 4 SW 1019,4 -
04.08.2020 01:00:00 12,6 12,1 2 1 7 4 WSW 1019,3 0,0
04.08.2020 00:00:00 13,4 12,4 1 1 8 4 SW 1019,2 0,0
03.08.2020 23:00:00 14,2 12,2 0 0 2 1 SW 1019,1 0,0
03.08.2020 22:00:00 15,8 11,8 1 0 8 5 NNW 1018,4 0,0

tt = temperature
td = dewpoint
ff = wind speed
fx = gusts
dd = wind direction
ppp = reduced air pressure
rr = precipitation

Next stations